Time;durP1;ratioP1;P1;durP2;ratioP2;P2;SDS_P1;SDS_P2;PMS_P1;PMS_P2;Temp;Humidity;BMP_temperature;BMP_pressure;BME280_temperature;BME280_humidity;BME280_pressure;Samples;Min_cycle;Max_cycle;Signal;HPM_P1;HPM_P2
2021/06/07 00:01:31;;;;;;;32.42;22.70;;;16.90;99.90;;;;;;5109555;28;20016;-60
2021/06/07 00:03:56;;;;;;;34.97;26.10;;;16.90;99.90;;;;;;5110578;28;20024;-60
2021/06/07 00:06:22;;;;;;;38.95;25.70;;;16.90;99.90;;;;;;5109703;28;20024;-59
2021/06/07 00:08:48;;;;;;;35.88;24.90;;;17.00;99.90;;;;;;5110446;28;20030;-58
2021/06/07 00:11:14;;;;;;;45.00;29.70;;;17.00;99.90;;;;;;5110174;28;20192;-56
2021/06/07 00:13:43;;;;;;;38.78;27.27;;;17.00;99.90;;;;;;5110152;28;20107;-58
2021/06/07 00:16:09;;;;;;;36.45;25.23;;;17.00;99.90;;;;;;5108082;28;20027;-58
2021/06/07 00:18:35;;;;;;;38.33;27.55;;;17.10;99.90;;;;;;5109395;28;20524;-59
2021/06/07 00:21:10;;;;;;;42.75;26.65;;;17.10;99.90;;;;;;5108433;28;20108;-59
2021/06/07 00:23:37;;;;;;;41.60;27.63;;;17.10;99.90;;;;;;5110325;28;20023;-58
2021/06/07 00:26:03;;;;;;;39.97;27.67;;;17.10;99.90;;;;;;5109402;28;20405;-59
2021/06/07 00:28:29;;;;;;;40.25;29.15;;;17.10;99.90;;;;;;5109534;28;20585;-57
2021/06/07 00:30:55;;;;;;;45.97;28.73;;;17.10;99.90;;;;;;5110269;28;20036;-57
2021/06/07 00:33:20;;;;;;;42.95;31.58;;;17.10;99.90;;;;;;5110140;28;20024;-55
2021/06/07 00:35:46;;;;;;;38.17;26.88;;;17.10;99.90;;;;;;5109906;28;20508;-57
2021/06/07 00:38:12;;;;;;;51.13;30.17;;;17.10;99.90;;;;;;5110457;28;20027;-59
2021/06/07 00:40:38;;;;;;;39.63;27.58;;;17.10;99.90;;;;;;5108116;28;20127;-53
2021/06/07 00:43:05;;;;;;;37.33;27.10;;;17.10;99.90;;;;;;5109407;28;20027;-53
2021/06/07 00:45:32;;;;;;;39.80;27.58;;;17.10;99.90;;;;;;5109738;28;20031;-56
2021/06/07 00:48:00;;;;;;;42.45;28.02;;;17.20;99.90;;;;;;5110299;28;20044;-55
2021/06/07 00:50:45;;;;;;;43.08;27.90;;;17.20;99.90;;;;;;5108877;28;20028;-54
2021/06/07 00:53:14;;;;;;;33.03;23.35;;;17.10;99.90;;;;;;5108948;28;20041;-54
2021/06/07 00:55:55;;;;;;;44.15;28.25;;;17.10;99.90;;;;;;5108043;28;20058;-53
2021/06/07 00:58:26;;;;;;;35.13;25.38;;;17.00;99.90;;;;;;5109020;28;20034;-57
2021/06/07 01:00:52;;;;;;;39.78;26.73;;;17.00;99.90;;;;;;5105590;28;20046;-57
2021/06/07 01:03:19;;;;;;;37.90;26.48;;;17.10;99.90;;;;;;5109276;28;20109;-55
2021/06/07 01:05:47;;;;;;;46.17;28.67;;;17.10;99.90;;;;;;5109012;28;20039;-56
2021/06/07 01:08:13;;;;;;;39.33;27.00;;;17.10;99.90;;;;;;5106389;28;20034;-58
2021/06/07 01:10:40;;;;;;;42.25;28.30;;;17.00;99.90;;;;;;5108505;28;20030;-55
2021/06/07 01:13:05;;;;;;;37.47;25.48;;;17.00;99.90;;;;;;5109517;28;20058;-59
2021/06/07 01:15:31;;;;;;;40.35;28.45;;;17.10;99.90;;;;;;5108887;28;20501;-54
2021/06/07 01:17:57;;;;;;;38.13;26.52;;;17.10;99.90;;;;;;5108577;28;20105;-56
2021/06/07 01:20:24;;;;;;;37.45;26.02;;;17.10;99.90;;;;;;5107390;28;20035;-57
2021/06/07 01:22:51;;;;;;;37.70;25.80;;;17.10;99.90;;;;;;5109238;28;20516;-55
2021/06/07 01:25:24;;;;;;;38.45;27.00;;;17.10;99.90;;;;;;5099822;28;20054;-60
2021/06/07 01:27:51;;;;;;;41.27;27.03;;;17.00;99.90;;;;;;5103423;28;20016;-54
2021/06/07 01:30:21;;;;;;;35.95;26.08;;;17.00;99.90;;;;;;5109627;28;20032;-57
2021/06/07 01:32:47;;;;;;;39.17;25.20;;;16.90;99.90;;;;;;5108918;28;20062;-54
2021/06/07 01:35:13;;;;;;;34.63;24.23;;;17.00;99.90;;;;;;5107433;28;20058;-53
2021/06/07 01:37:40;;;;;;;37.03;26.02;;;16.90;99.90;;;;;;5108049;28;20032;-55
2021/06/07 01:40:08;;;;;;;33.40;25.08;;;16.90;99.90;;;;;;5109603;28;20035;-57
2021/06/07 01:42:34;;;;;;;36.95;25.05;;;16.90;99.90;;;;;;5106481;28;20031;-61
2021/06/07 01:45:00;;;;;;;37.63;25.02;;;16.80;99.90;;;;;;5107853;28;20023;-53
2021/06/07 01:47:26;;;;;;;40.33;26.58;;;16.80;99.90;;;;;;5103931;28;20103;-54
2021/06/07 01:49:52;;;;;;;42.88;26.48;;;16.70;99.90;;;;;;5108767;28;20107;-55
2021/06/07 01:52:17;;;;;;;45.53;28.98;;;16.60;99.90;;;;;;5109225;28;20128;-58
2021/06/07 01:54:43;;;;;;;38.70;27.00;;;16.50;99.90;;;;;;5107592;28;20035;-58
2021/06/07 01:57:09;;;;;;;47.45;28.23;;;16.40;99.90;;;;;;5108128;28;20512;-55
2021/06/07 01:59:35;;;;;;;39.40;26.77;;;16.40;99.90;;;;;;5108784;28;20031;-58
2021/06/07 02:02:05;;;;;;;38.60;25.35;;;16.40;99.90;;;;;;5107537;28;20065;-60
2021/06/07 02:04:30;;;;;;;47.00;29.75;;;16.40;99.90;;;;;;5106368;28;20030;-57
2021/06/07 02:06:56;;;;;;;41.22;28.00;;;16.40;99.90;;;;;;5107000;28;20110;-55
2021/06/07 02:09:21;;;;;;;48.58;30.60;;;16.40;99.90;;;;;;5108071;28;20047;-57
2021/06/07 02:11:47;;;;;;;40.35;28.63;;;16.30;99.90;;;;;;5089906;28;20032;-60
2021/06/07 02:14:12;;;;;;;40.08;28.35;;;16.30;99.90;;;;;;5108441;28;20047;-58
2021/06/07 02:16:39;;;;;;;41.80;28.70;;;16.30;99.90;;;;;;5106613;28;20023;-57
2021/06/07 02:19:07;;;;;;;42.90;28.52;;;16.30;99.90;;;;;;5108961;28;20051;-59
2021/06/07 02:21:34;;;;;;;43.78;29.08;;;16.20;99.90;;;;;;5110429;28;20098;-60
2021/06/07 02:24:02;;;;;;;50.80;32.20;;;16.10;99.90;;;;;;5112430;28;20015;-57
2021/06/07 02:26:28;;;;;;;47.40;32.40;;;16.00;99.90;;;;;;5110108;28;20389;-56
2021/06/07 02:29:16;;;;;;;57.28;34.38;;;16.00;99.90;;;;;;5111966;28;20019;-59
2021/06/07 02:31:43;;;;;;;48.47;32.65;;;15.90;99.90;;;;;;5111031;28;20035;-53
2021/06/07 02:34:11;;;;;;;46.72;32.28;;;16.00;99.90;;;;;;5111987;28;20111;-54
2021/06/07 02:36:38;;;;;;;51.13;33.40;;;16.00;99.90;;;;;;5110235;28;20022;-58
2021/06/07 02:39:10;;;;;;;43.40;29.33;;;16.00;99.90;;;;;;5110461;28;20024;-56
2021/06/07 02:41:38;;;;;;;54.25;31.75;;;16.00;99.90;;;;;;5109180;28;20038;-55
2021/06/07 02:44:03;;;;;;;45.28;30.42;;;16.10;99.90;;;;;;5112195;28;20020;-55
2021/06/07 02:46:29;;;;;;;47.20;31.90;;;16.10;99.90;;;;;;5110631;28;20791;-56
2021/06/07 02:48:55;;;;;;;45.42;32.47;;;16.10;99.90;;;;;;5110793;28;20548;-56
2021/06/07 02:51:20;;;;;;;44.95;29.70;;;16.10;99.90;;;;;;5111998;28;20488;-57
2021/06/07 02:53:48;;;;;;;44.85;30.85;;;16.10;99.90;;;;;;5108053;28;20653;-53
2021/06/07 02:56:14;;;;;;;56.05;35.30;;;16.10;99.90;;;;;;5108583;28;20027;-57
2021/06/07 02:58:40;;;;;;;50.83;32.35;;;16.10;99.90;;;;;;5111786;28;20026;-57
2021/06/07 03:01:11;;;;;;;56.72;35.00;;;16.00;99.90;;;;;;5112207;28;20031;-58
2021/06/07 03:03:37;;;;;;;52.17;33.35;;;16.00;99.90;;;;;;5111110;28;20457;-57
2021/06/07 03:06:04;;;;;;;50.60;34.42;;;16.00;99.90;;;;;;5109287;28;20599;-57
2021/06/07 03:08:32;;;;;;;52.38;34.45;;;16.00;99.90;;;;;;5111014;28;20012;-59
2021/06/07 03:11:00;;;;;;;47.92;32.95;;;16.00;99.90;;;;;;5111762;28;20119;-59
2021/06/07 03:13:27;;;;;;;53.50;35.33;;;15.90;99.90;;;;;;5111696;28;20024;-58
2021/06/07 03:15:54;;;;;;;51.30;34.35;;;16.00;99.90;;;;;;5091409;28;20024;-57
2021/06/07 03:18:20;;;;;;;52.95;33.15;;;15.90;99.90;;;;;;5111338;28;20040;-54
2021/06/07 03:20:46;;;;;;;49.00;34.30;;;15.90;99.90;;;;;;5110859;28;20027;-57
2021/06/07 03:23:15;;;;;;;52.30;34.58;;;15.90;99.90;;;;;;5110895;28;20030;-58
2021/06/07 03:25:43;;;;;;;52.28;33.92;;;15.90;99.90;;;;;;5109191;28;20020;-58
2021/06/07 03:28:09;;;;;;;47.45;34.13;;;15.90;99.90;;;;;;5110908;28;20114;-60
2021/06/07 03:30:36;;;;;;;58.63;34.25;;;15.90;99.90;;;;;;5111786;28;20164;-61
2021/06/07 03:33:03;;;;;;;54.28;35.72;;;15.90;99.90;;;;;;5106759;28;20035;-58
2021/06/07 03:35:28;;;;;;;59.35;35.00;;;15.90;99.90;;;;;;5104727;28;20035;-58
2021/06/07 03:37:54;;;;;;;58.95;35.95;;;15.90;99.90;;;;;;5110613;28;20023;-55
2021/06/07 03:40:24;;;;;;;54.33;36.40;;;15.90;99.90;;;;;;5110527;28;20027;-58
2021/06/07 03:42:50;;;;;;;53.00;35.03;;;15.80;99.90;;;;;;5111190;28;20346;-56
2021/06/07 03:45:16;;;;;;;61.00;37.85;;;15.80;99.90;;;;;;5109141;28;20027;-59
2021/06/07 03:47:44;;;;;;;55.00;35.72;;;15.80;99.90;;;;;;5104673;28;20084;-57
2021/06/07 03:50:11;;;;;;;52.28;33.70;;;15.80;99.90;;;;;;5110529;28;20026;-59
2021/06/07 03:52:37;;;;;;;51.45;33.03;;;15.80;99.90;;;;;;5104064;28;20072;-57
2021/06/07 03:55:06;;;;;;;54.08;35.65;;;15.80;99.90;;;;;;5108661;28;20046;-55
2021/06/07 03:57:31;;;;;;;57.38;37.42;;;15.80;99.90;;;;;;5110107;28;20043;-57
2021/06/07 03:59:57;;;;;;;54.72;35.13;;;15.80;99.90;;;;;;5110583;28;20020;-55
2021/06/07 04:02:23;;;;;;;49.67;33.65;;;15.80;99.90;;;;;;5110618;28;20511;-59
2021/06/07 04:04:49;;;;;;;53.97;35.30;;;15.80;99.90;;;;;;5108999;28;20051;-60
2021/06/07 04:07:14;;;;;;;51.60;32.72;;;15.80;99.90;;;;;;5109433;28;20051;-60
2021/06/07 04:09:42;;;;;;;50.53;33.25;;;15.80;99.90;;;;;;5109229;28;20031;-55
2021/06/07 04:12:08;;;;;;;56.20;34.65;;;15.80;99.90;;;;;;5110335;28;20031;-58
2021/06/07 04:14:34;;;;;;;54.40;36.83;;;15.80;99.90;;;;;;5108960;28;20034;-54
2021/06/07 04:17:00;;;;;;;57.90;34.53;;;15.80;99.90;;;;;;5109188;28;20053;-57
2021/06/07 04:19:26;;;;;;;49.03;32.90;;;15.80;99.90;;;;;;5110547;28;20505;-54
2021/06/07 04:21:52;;;;;;;53.50;32.55;;;15.80;99.90;;;;;;5091905;28;20549;-58
2021/06/07 04:24:17;;;;;;;51.10;34.70;;;15.70;99.90;;;;;;5109050;28;20030;-60
2021/06/07 04:26:43;;;;;;;53.42;34.33;;;15.80;99.90;;;;;;5106273;28;20088;-61
2021/06/07 04:29:08;;;;;;;56.67;35.63;;;15.80;99.90;;;;;;5109828;28;20062;-59
2021/06/07 04:31:34;;;;;;;52.85;35.15;;;15.80;99.90;;;;;;5109850;28;20035;-56
2021/06/07 04:34:00;;;;;;;54.08;34.63;;;15.80;99.90;;;;;;5110429;28;20043;-58
2021/06/07 04:36:25;;;;;;;56.47;34.40;;;15.70;99.90;;;;;;5107606;28;20039;-60
2021/06/07 04:38:51;;;;;;;51.85;34.72;;;15.80;99.90;;;;;;5109820;28;20024;-59
2021/06/07 04:41:17;;;;;;;52.20;34.92;;;15.70;99.90;;;;;;5109193;28;20041;-58
2021/06/07 04:43:43;;;;;;;49.50;32.35;;;15.70;99.90;;;;;;5109244;28;20393;-58
2021/06/07 04:46:08;;;;;;;52.47;33.65;;;15.80;99.90;;;;;;5105270;28;20020;-59
2021/06/07 04:48:34;;;;;;;51.85;34.22;;;15.80;99.90;;;;;;5108883;28;20029;-61
2021/06/07 04:51:00;;;;;;;59.75;35.40;;;15.80;99.90;;;;;;5107434;28;20039;-59
2021/06/07 04:53:25;;;;;;;47.40;32.90;;;15.80;99.90;;;;;;5109702;28;20434;-64
2021/06/07 04:55:52;;;;;;;54.75;33.00;;;15.80;99.90;;;;;;5107041;28;20027;-64
2021/06/07 04:58:28;;;;;;;58.10;36.08;;;15.80;99.90;;;;;;5108443;28;20365;-64
2021/06/07 05:00:57;;;;;;;51.20;35.30;;;15.80;99.90;;;;;;5106965;28;20071;-63
2021/06/07 05:03:26;;;;;;;52.55;35.03;;;15.80;99.90;;;;;;5103279;28;20032;-63
2021/06/07 05:05:51;;;;;;;56.67;35.25;;;15.80;99.90;;;;;;5099025;28;20031;-63
2021/06/07 05:08:17;;;;;;;58.40;34.30;;;15.80;99.90;;;;;;5105517;28;20031;-65
2021/06/07 05:10:43;;;;;;;55.45;36.10;;;15.80;99.90;;;;;;5108470;28;20520;-64
2021/06/07 05:13:09;;;;;;;55.15;35.60;;;15.80;99.90;;;;;;5109089;28;20148;-64
2021/06/07 05:15:34;;;;;;;57.47;35.13;;;15.80;99.90;;;;;;5106253;28;20433;-64
2021/06/07 05:18:00;;;;;;;58.97;34.97;;;15.80;99.90;;;;;;5105796;28;20015;-64
2021/06/07 05:20:27;;;;;;;55.50;34.53;;;15.70;99.90;;;;;;5108509;28;20446;-63
2021/06/07 05:22:54;;;;;;;56.80;37.35;;;15.70;99.90;;;;;;5109536;28;20104;-64
2021/06/07 05:25:22;;;;;;;52.92;33.70;;;15.80;99.90;;;;;;5103903;28;20024;-63
2021/06/07 05:27:49;;;;;;;52.70;34.28;;;15.70;99.90;;;;;;5107622;28;20110;-64
2021/06/07 05:30:16;;;;;;;54.13;32.95;;;15.80;99.90;;;;;;5109004;28;20102;-64
2021/06/07 05:32:42;;;;;;;54.38;34.10;;;15.80;99.90;;;;;;5109144;28;20558;-64
2021/06/07 05:35:10;;;;;;;55.22;34.90;;;15.80;99.90;;;;;;5103009;28;20057;-63
2021/06/07 05:37:36;;;;;;;55.17;34.03;;;15.80;99.90;;;;;;5102418;28;20771;-64
2021/06/07 05:40:07;;;;;;;53.25;34.10;;;15.80;99.90;;;;;;5107666;28;20039;-65
2021/06/07 05:42:33;;;;;;;55.78;33.90;;;15.90;99.90;;;;;;5104798;28;20028;-64
2021/06/07 05:44:58;;;;;;;50.40;32.67;;;15.90;99.90;;;;;;5107080;28;20026;-63
2021/06/07 05:47:24;;;;;;;53.30;33.05;;;15.90;99.90;;;;;;5107882;28;20031;-62
2021/06/07 05:49:49;;;;;;;49.72;32.05;;;16.00;99.90;;;;;;5108340;28;20031;-65
2021/06/07 05:52:15;;;;;;;54.03;31.98;;;16.10;99.90;;;;;;5106892;22;20413;-61
2021/06/07 05:54:41;;;;;;;46.58;30.90;;;16.10;99.90;;;;;;5086331;28;20456;-61
2021/06/07 05:57:08;;;;;;;49.13;31.23;;;16.20;99.90;;;;;;5068769;28;20024;-60
2021/06/07 05:59:36;;;;;;;45.72;29.88;;;16.20;99.90;;;;;;5072883;28;20027;-60
2021/06/07 06:02:07;;;;;;;46.38;29.90;;;16.20;99.90;;;;;;5081292;28;20019;-60
2021/06/07 06:04:33;;;;;;;44.60;28.02;;;16.30;99.90;;;;;;5059943;28;20021;-59
2021/06/07 06:07:00;;;;;;;46.75;29.63;;;16.30;99.90;;;;;;5071839;28;20033;-60
2021/06/07 06:09:26;;;;;;;43.58;28.10;;;16.40;99.90;;;;;;5058732;28;20476;-60
2021/06/07 06:11:51;;;;;;;40.88;27.05;;;16.50;99.90;;;;;;5066271;28;20020;-60
2021/06/07 06:14:17;;;;;;;48.95;27.60;;;16.50;99.90;;;;;;5069604;28;20033;-59
2021/06/07 06:16:42;;;;;;;38.15;25.13;;;16.60;99.90;;;;;;5070398;28;20471;-60
2021/06/07 06:19:10;;;;;;;36.08;24.95;;;16.70;99.90;;;;;;5061468;28;20029;-61
2021/06/07 06:21:38;;;;;;;36.25;23.70;;;16.80;99.90;;;;;;5066328;28;20024;-60
2021/06/07 06:24:04;;;;;;;35.63;23.83;;;17.00;99.90;;;;;;5068250;28;20039;-60
2021/06/07 06:26:30;;;;;;;33.60;24.17;;;17.10;99.90;;;;;;5083838;28;20077;-61
2021/06/07 06:28:56;;;;;;;34.65;23.02;;;17.20;99.90;;;;;;5084319;28;20055;-61
2021/06/07 06:31:21;;;;;;;34.50;23.25;;;17.30;99.90;;;;;;5058132;28;20021;-61
2021/06/07 06:33:47;;;;;;;39.13;23.95;;;17.30;99.90;;;;;;5047240;28;20029;-61
2021/06/07 06:36:13;;;;;;;29.80;20.60;;;17.30;99.90;;;;;;5070363;28;20166;-59
2021/06/07 06:38:39;;;;;;;34.72;22.80;;;17.40;99.90;;;;;;5055915;28;20032;-59
2021/06/07 06:41:05;;;;;;;33.67;22.13;;;17.40;99.90;;;;;;5074458;28;20462;-60
2021/06/07 06:43:32;;;;;;;30.70;21.38;;;17.40;99.90;;;;;;5047683;28;20559;-61
2021/06/07 06:45:58;;;;;;;32.15;21.50;;;17.40;99.90;;;;;;5076982;28;20601;-59
2021/06/07 06:48:23;;;;;;;29.75;21.08;;;17.40;99.90;;;;;;5071796;28;20043;-60
2021/06/07 06:50:49;;;;;;;30.88;21.98;;;17.40;99.90;;;;;;5073214;28;20028;-62
2021/06/07 06:53:17;;;;;;;30.08;20.70;;;17.40;99.90;;;;;;5076482;28;20108;-61
2021/06/07 06:55:44;;;;;;;32.75;21.75;;;17.40;99.90;;;;;;5073260;28;20078;-60
2021/06/07 06:58:10;;;;;;;32.30;22.23;;;17.40;99.90;;;;;;5059176;28;20030;-62
2021/06/07 07:00:36;;;;;;;29.40;20.42;;;17.40;99.90;;;;;;5082794;28;20082;-61
2021/06/07 07:03:14;;;;;;;27.80;19.60;;;17.40;99.90;;;;;;5071198;28;20065;-61
2021/06/07 07:05:41;;;;;;;29.92;19.17;;;17.60;99.90;;;;;;5064260;28;20486;-62
2021/06/07 07:08:07;;;;;;;34.47;22.77;;;17.60;99.90;;;;;;5092645;28;20028;-62
2021/06/07 07:10:35;;;;;;;31.52;22.73;;;17.70;99.90;;;;;;5064783;28;20024;-60
2021/06/07 07:13:00;;;;;;;32.67;22.52;;;17.70;99.90;;;;;;5053542;28;20031;-61
2021/06/07 07:15:26;;;;;;;35.22;22.83;;;17.60;99.90;;;;;;5065006;28;20028;-61
2021/06/07 07:17:52;;;;;;;33.35;20.73;;;17.70;99.90;;;;;;5093052;28;20021;-62
2021/06/07 07:20:18;;;;;;;33.65;21.67;;;17.80;99.90;;;;;;5078045;28;20032;-61
2021/06/07 07:22:44;;;;;;;30.13;20.67;;;17.80;99.90;;;;;;5058194;28;20386;-61
2021/06/07 07:25:11;;;;;;;29.65;22.17;;;17.90;99.90;;;;;;5064221;28;20230;-61
2021/06/07 07:27:37;;;;;;;32.10;21.67;;;17.90;99.90;;;;;;5055123;28;20070;-62
2021/06/07 07:30:09;;;;;;;38.72;25.20;;;18.00;99.90;;;;;;5067977;28;20498;-61
2021/06/07 07:32:37;;;;;;;33.53;23.38;;;17.90;99.90;;;;;;5038686;28;20028;-62
2021/06/07 07:35:04;;;;;;;36.20;23.40;;;18.00;99.90;;;;;;5064113;28;20032;-61
2021/06/07 07:37:29;;;;;;;41.70;23.85;;;18.00;99.90;;;;;;5073830;28;20032;-61
2021/06/07 07:39:55;;;;;;;41.10;24.70;;;18.20;99.90;;;;;;5083288;28;20512;-61
2021/06/07 07:42:21;;;;;;;43.97;26.63;;;18.20;99.90;;;;;;5060811;28;20029;-61
2021/06/07 07:44:47;;;;;;;39.75;25.65;;;18.30;99.90;;;;;;5071074;28;20032;-60
2021/06/07 07:47:12;;;;;;;39.95;26.85;;;18.30;99.90;;;;;;5077482;28;20378;-61
2021/06/07 07:49:39;;;;;;;42.03;26.50;;;18.30;99.90;;;;;;5063312;28;20482;-60
2021/06/07 07:52:06;;;;;;;48.53;30.00;;;18.40;99.90;;;;;;5049134;28;20047;-61
2021/06/07 07:54:33;;;;;;;47.83;30.35;;;18.50;99.90;;;;;;5061497;28;20112;-61
2021/06/07 07:57:00;;;;;;;47.13;29.83;;;18.40;99.90;;;;;;5089280;28;20032;-61
2021/06/07 07:59:25;;;;;;;55.63;32.25;;;18.40;99.90;;;;;;5074405;28;20016;-61
2021/06/07 08:01:51;;;;;;;50.15;30.00;;;18.50;99.90;;;;;;5062506;28;20223;-60
2021/06/07 08:04:17;;;;;;;52.90;32.95;;;18.50;99.90;;;;;;5062841;28;20593;-60
2021/06/07 08:06:44;;;;;;;45.97;29.83;;;18.50;99.90;;;;;;5071596;28;20032;-61
2021/06/07 08:09:10;;;;;;;48.60;28.83;;;18.60;99.90;;;;;;5072132;28;20039;-61
2021/06/07 08:11:36;;;;;;;53.75;31.63;;;18.70;99.90;;;;;;5070825;28;20035;-62
2021/06/07 08:14:02;;;;;;;57.63;33.78;;;18.80;99.90;;;;;;5074466;28;20032;-61
2021/06/07 08:16:28;;;;;;;56.28;34.13;;;18.90;99.90;;;;;;5084307;28;20545;-60
2021/06/07 08:18:53;;;;;;;74.57;38.78;;;19.00;99.90;;;;;;5045597;28;20086;-61
2021/06/07 08:21:19;;;;;;;71.22;39.83;;;19.10;99.90;;;;;;5056476;28;20039;-61
2021/06/07 08:23:45;;;;;;;72.63;40.05;;;19.10;99.90;;;;;;5085749;28;20031;-60
2021/06/07 08:26:11;;;;;;;71.55;39.58;;;19.00;99.90;;;;;;5046797;28;20455;-61
2021/06/07 08:28:37;;;;;;;76.25;40.67;;;19.00;99.90;;;;;;5072026;28;20105;-62
2021/06/07 08:31:03;;;;;;;73.68;42.33;;;19.10;99.90;;;;;;5062497;28;20028;-61
2021/06/07 08:33:29;;;;;;;70.53;41.75;;;19.00;99.90;;;;;;5069185;28;20502;-61
2021/06/07 08:35:57;;;;;;;76.65;44.22;;;19.00;99.90;;;;;;5071645;28;20036;-61
2021/06/07 08:38:23;;;;;;;74.70;41.90;;;19.00;99.90;;;;;;5070182;28;20050;-61
2021/06/07 08:40:53;;;;;;;62.35;36.00;;;19.10;99.90;;;;;;5061972;28;20577;-61
2021/06/07 08:43:19;;;;;;;56.33;34.60;;;19.30;99.90;;;;;;5061032;28;20021;-62
2021/06/07 08:45:45;;;;;;;58.25;36.13;;;19.20;99.90;;;;;;5067009;28;20044;-61
2021/06/07 08:48:10;;;;;;;64.88;38.53;;;19.10;99.90;;;;;;5051074;28;20501;-61
2021/06/07 08:50:36;;;;;;;62.67;36.00;;;19.10;99.90;;;;;;5044253;28;20401;-61
2021/06/07 08:53:02;;;;;;;45.38;28.73;;;19.30;99.90;;;;;;5065868;28;20036;-61
2021/06/07 08:55:31;;;;;;;53.95;31.75;;;19.40;99.90;;;;;;5052031;28;20056;-61
2021/06/07 08:57:57;;;;;;;54.90;31.65;;;19.50;99.90;;;;;;5057076;28;20036;-63
2021/06/07 09:00:26;;;;;;;56.53;32.47;;;19.60;99.90;;;;;;5061426;28;20028;-61
2021/06/07 09:03:07;;;;;;;50.78;31.17;;;19.60;99.90;;;;;;5050690;28;20056;-62
2021/06/07 09:05:33;;;;;;;47.22;30.60;;;19.80;99.90;;;;;;5073055;28;20044;-61
2021/06/07 09:08:00;;;;;;;53.28;30.02;;;19.80;99.90;;;;;;5085853;28;20070;-61
2021/06/07 09:10:28;;;;;;;41.17;29.27;;;19.60;99.90;;;;;;5074527;28;20033;-61
2021/06/07 09:12:57;;;;;;;47.13;30.50;;;19.40;99.90;;;;;;5074446;28;20024;-61
2021/06/07 09:15:27;;;;;;;40.33;27.95;;;19.40;99.90;;;;;;5043843;28;20395;-61
2021/06/07 09:17:52;;;;;;;43.30;27.85;;;19.30;99.90;;;;;;5074570;28;20016;-61
2021/06/07 09:20:21;;;;;;;38.08;24.27;;;19.30;99.90;;;;;;5066029;28;20047;-61
2021/06/07 09:22:52;;;;;;;36.65;23.40;;;19.50;99.90;;;;;;5062180;28;20115;-62
2021/06/07 09:25:20;;;;;;;41.90;25.38;;;19.50;99.90;;;;;;5078837;28;20029;-61
2021/06/07 09:28:10;;;;;;;43.33;26.08;;;19.60;99.90;;;;;;5047213;28;20067;-61
2021/06/07 09:30:48;;;;;;;49.28;28.00;;;19.50;99.90;;;;;;5066705;28;20414;-61
2021/06/07 09:33:35;;;;;;;42.90;25.63;;;19.40;99.90;;;;;;5079203;28;20150;-61
2021/06/07 09:36:22;;;;;;;46.15;26.75;;;19.50;99.90;;;;;;5069830;28;20031;-61
2021/06/07 09:38:59;;;;;;;42.17;25.70;;;19.50;99.90;;;;;;5073827;28;20027;-61
2021/06/07 09:41:30;;;;;;;42.35;26.02;;;19.50;99.90;;;;;;5073573;28;20507;-60
2021/06/07 09:44:02;;;;;;;40.95;24.73;;;19.50;99.90;;;;;;5073609;28;20025;-60
2021/06/07 09:46:30;;;;;;;41.15;27.33;;;19.60;99.90;;;;;;5056282;28;20031;-61
2021/06/07 09:49:10;;;;;;;45.45;27.42;;;19.60;99.90;;;;;;5085645;28;20032;-60
2021/06/07 09:51:38;;;;;;;43.05;27.63;;;19.60;99.90;;;;;;5076873;28;20047;-61
2021/06/07 09:54:05;;;;;;;41.20;27.27;;;19.60;99.90;;;;;;5056863;28;20039;-60
2021/06/07 09:56:31;;;;;;;39.30;27.58;;;19.60;99.90;;;;;;5066555;28;20051;-61
2021/06/07 09:58:57;;;;;;;49.40;28.10;;;19.60;99.90;;;;;;5073492;28;20081;-61
2021/06/07 10:01:33;;;;;;;39.33;26.38;;;19.50;99.90;;;;;;5074977;28;20029;-61
2021/06/07 10:04:00;;;;;;;42.58;27.75;;;19.50;99.90;;;;;;5064814;28;20106;-61
2021/06/07 10:06:30;;;;;;;44.17;29.92;;;19.50;99.90;;;;;;5063567;28;20070;-61
2021/06/07 10:09:01;;;;;;;46.95;31.95;;;19.70;99.90;;;;;;5062936;28;20036;-61
2021/06/07 10:11:33;;;;;;;41.78;29.50;;;19.70;99.90;;;;;;5054370;28;20456;-61
2021/06/07 10:14:13;;;;;;;47.22;31.13;;;19.70;99.90;;;;;;5050357;28;20028;-60
2021/06/07 10:17:01;;;;;;;48.65;31.05;;;19.80;99.90;;;;;;5074291;28;20028;-60
2021/06/07 10:19:35;;;;;;;48.25;32.38;;;19.80;99.90;;;;;;5063992;28;20021;-61
2021/06/07 10:22:03;;;;;;;49.83;31.38;;;20.00;99.90;;;;;;5059001;28;20016;-61
2021/06/07 10:24:29;;;;;;;49.22;30.83;;;20.00;99.90;;;;;;5077932;28;20033;-61
2021/06/07 10:26:56;;;;;;;42.63;29.63;;;20.00;99.90;;;;;;5073931;28;20375;-61
2021/06/07 10:29:22;;;;;;;44.97;27.02;;;20.00;99.90;;;;;;5047927;28;20120;-59
2021/06/07 10:31:48;;;;;;;43.63;26.88;;;20.00;99.90;;;;;;5072582;28;20040;-61
2021/06/07 10:34:14;;;;;;;38.50;23.48;;;20.00;99.90;;;;;;5065092;28;20115;-62
2021/06/07 10:36:46;;;;;;;37.72;25.23;;;20.20;99.90;;;;;;5075794;28;20111;-62
2021/06/07 10:39:19;;;;;;;41.40;26.73;;;20.20;99.90;;;;;;5052485;28;20552;-60
2021/06/07 10:41:50;;;;;;;37.28;24.08;;;20.00;99.90;;;;;;5086035;28;20036;-62
2021/06/07 10:44:34;;;;;;;34.42;23.63;;;20.10;99.90;;;;;;5058652;28;20021;-61
2021/06/07 10:47:05;;;;;;;35.67;24.90;;;20.20;99.90;;;;;;5073215;28;20066;-62
2021/06/07 10:49:46;;;;;;;37.15;22.60;;;20.10;99.90;;;;;;5080104;28;20035;-60
2021/06/07 10:52:18;;;;;;;32.33;20.25;;;20.10;99.90;;;;;;5066529;28;20028;-61
2021/06/07 10:54:54;;;;;;;34.63;21.70;;;20.10;99.90;;;;;;5049270;28;20032;-61
2021/06/07 10:57:25;;;;;;;32.63;21.00;;;20.20;99.90;;;;;;5059789;28;20028;-61
2021/06/07 11:00:06;;;;;;;34.85;21.65;;;20.10;99.90;;;;;;5066300;28;20486;-61
2021/06/07 11:02:38;;;;;;;29.52;19.67;;;20.10;99.90;;;;;;5070829;28;20409;-61
2021/06/07 11:05:03;;;;;;;33.83;20.05;;;20.20;99.90;;;;;;5056918;28;20039;-61
2021/06/07 11:07:29;;;;;;;33.67;21.23;;;20.30;99.90;;;;;;5073540;28;20401;-61
2021/06/07 11:10:19;;;;;;;33.33;20.33;;;20.30;99.90;;;;;;5081257;28;20028;-60
2021/06/07 11:12:47;;;;;;;35.72;20.85;;;20.40;99.90;;;;;;5055296;28;20029;-61
2021/06/07 11:15:20;;;;;;;31.63;19.45;;;20.50;99.90;;;;;;5067659;28;20107;-62
2021/06/07 11:17:48;;;;;;;33.60;19.98;;;20.70;99.90;;;;;;5064821;28;20505;-61
2021/06/07 11:20:29;;;;;;;34.60;19.30;;;20.80;99.90;;;;;;5079369;28;20111;-62
2021/06/07 11:23:09;;;;;;;33.03;20.63;;;20.90;99.90;;;;;;5060104;28;20033;-60
2021/06/07 11:25:53;;;;;;;33.90;20.77;;;20.90;99.90;;;;;;5052660;28;20032;-62
2021/06/07 11:28:46;;;;;;;32.47;21.65;;;21.00;99.90;;;;;;5073647;28;20495;-60
2021/06/07 11:31:15;;;;;;;34.30;21.48;;;21.10;99.90;;;;;;5066736;28;20040;-61
2021/06/07 11:33:57;;;;;;;32.90;20.92;;;21.20;99.90;;;;;;5075197;28;20375;-61
2021/06/07 11:36:49;;;;;;;33.05;20.40;;;21.20;99.90;;;;;;5072093;28;20402;-61
2021/06/07 11:39:21;;;;;;;33.10;19.10;;;21.30;99.90;;;;;;5068551;28;20410;-61
2021/06/07 11:41:57;;;;;;;28.20;17.88;;;21.40;99.90;;;;;;5055657;28;20024;-62
2021/06/07 11:44:42;;;;;;;30.10;18.67;;;21.50;99.90;;;;;;5057692;28;20024;-62
2021/06/07 11:47:09;;;;;;;29.98;19.83;;;21.50;99.90;;;;;;5053079;28;20041;-61
2021/06/07 11:49:35;;;;;;;34.83;20.65;;;21.30;99.90;;;;;;5073001;28;20044;-62
2021/06/07 11:52:07;;;;;;;36.67;23.25;;;21.40;99.90;;;;;;5088738;22;20044;-60
2021/06/07 11:54:36;;;;;;;35.88;22.48;;;21.30;99.90;;;;;;5071940;28;20112;-57
2021/06/07 11:57:04;;;;;;;35.38;22.98;;;21.10;99.90;;;;;;5080660;28;20447;-59
2021/06/07 11:59:32;;;;;;;32.80;22.63;;;21.00;99.90;;;;;;5064986;28;20445;-59
2021/06/07 12:01:58;;;;;;;35.25;22.13;;;20.80;99.90;;;;;;5061165;28;20029;-61
2021/06/07 12:04:24;;;;;;;34.67;23.00;;;20.70;99.90;;;;;;5067085;28;20052;-59
2021/06/07 12:06:49;;;;;;;32.25;22.20;;;20.60;99.90;;;;;;5065403;28;20060;-60
2021/06/07 12:09:19;;;;;;;38.40;24.55;;;20.50;99.90;;;;;;5057186;28;21256;-61
2021/06/07 12:11:45;;;;;;;30.95;20.92;;;20.40;99.90;;;;;;5067205;28;20423;-60
2021/06/07 12:14:10;;;;;;;34.00;21.60;;;20.30;99.90;;;;;;5069014;28;20374;-61
2021/06/07 12:16:39;;;;;;;34.95;23.25;;;20.30;99.90;;;;;;5066782;28;20027;-60
2021/06/07 12:19:10;;;;;;;35.22;22.27;;;20.30;99.90;;;;;;5067069;28;20477;-61
2021/06/07 12:21:36;;;;;;;31.20;22.02;;;20.20;99.90;;;;;;5066880;28;20397;-61
2021/06/07 12:24:11;;;;;;;28.30;19.25;;;20.20;99.90;;;;;;5067967;28;20016;-61
2021/06/07 12:29:25;;;;;;;17.45;12.05;;;20.40;99.90;;;;;;5067377;28;20116;-61
2021/06/07 12:32:08;;;;;;;16.60;10.43;;;20.60;99.90;;;;;;5064293;28;20024;-61
2021/06/07 12:34:35;;;;;;;17.23;11.25;;;20.80;99.90;;;;;;5064037;28;20020;-60
2021/06/07 12:37:02;;;;;;;19.52;10.82;;;20.90;99.90;;;;;;5067935;28;20470;-61